createdAt,value
2022-09-23T00:02:04.042Z,11.17
2022-09-23T00:04:37.414Z,11.08
2022-09-23T00:07:10.873Z,11.03
2022-09-23T00:09:44.221Z,10.98
2022-09-23T00:12:18.248Z,10.91
2022-09-23T00:14:51.528Z,10.87
2022-09-23T00:17:24.818Z,10.85
2022-09-23T00:19:58.045Z,10.84
2022-09-23T00:22:31.302Z,10.84
2022-09-23T00:25:05.005Z,10.87
2022-09-23T00:27:38.871Z,10.95
2022-09-23T00:30:13.445Z,11.02
2022-09-23T00:32:46.683Z,11.06
2022-09-23T00:35:20.230Z,11.08
2022-09-23T00:37:53.678Z,11.12
2022-09-23T00:40:27.017Z,11.15
2022-09-23T00:43:00.411Z,11.22
2022-09-23T00:45:33.635Z,11.23
2022-09-23T00:48:07.682Z,11.26
2022-09-23T00:50:43.807Z,11.33
2022-09-23T00:53:21.370Z,11.38
2022-09-23T00:55:57.782Z,11.43
2022-09-23T00:58:34.515Z,11.42
2022-09-23T01:01:08.147Z,11.42
2022-09-23T01:03:41.907Z,11.43
2022-09-23T01:06:15.938Z,11.44
2022-09-23T01:08:50.254Z,11.44
2022-09-23T01:11:41.574Z,11.46
2022-09-23T01:17:25.927Z,11.60
2022-09-23T01:20:41.927Z,11.43
2022-09-23T01:23:32.357Z,11.44
2022-09-23T01:26:14.041Z,11.46
2022-09-23T01:29:06.136Z,11.45
2022-09-23T01:31:43.013Z,11.41
2022-09-23T01:34:19.116Z,11.41
2022-09-23T01:36:55.285Z,11.37
2022-09-23T01:39:31.557Z,11.40
2022-09-23T01:42:08.647Z,11.45
2022-09-23T01:44:46.534Z,11.48
2022-09-23T01:47:19.695Z,11.50
2022-09-23T01:49:55.605Z,11.59
2022-09-23T01:52:32.861Z,11.48
2022-09-23T01:55:09.243Z,11.46
2022-09-23T01:57:45.386Z,11.45
2022-09-23T02:00:22.506Z,11.47
2022-09-23T02:02:59.514Z,11.54
2022-09-23T02:05:35.821Z,11.54
2022-09-23T02:08:12.180Z,11.55
2022-09-23T02:10:48.467Z,11.57
2022-09-23T02:13:25.149Z,11.62
2022-09-23T02:16:02.247Z,11.61
2022-09-23T02:18:38.300Z,11.58
2022-09-23T02:21:12.835Z,11.58
2022-09-23T02:23:50.591Z,11.59
2022-09-23T02:26:27.459Z,11.58
2022-09-23T02:29:04.693Z,11.56
2022-09-23T02:31:42.638Z,11.51
2022-09-23T02:34:19.737Z,11.47
2022-09-23T02:36:57.919Z,11.50
2022-09-23T02:39:34.759Z,11.41
2022-09-23T02:42:10.980Z,11.39
2022-09-23T02:44:44.187Z,11.40
2022-09-23T02:47:17.836Z,11.37
2022-09-23T02:49:50.900Z,11.38
2022-09-23T02:52:25.108Z,11.41
2022-09-23T02:54:59.003Z,11.44
2022-09-23T02:57:34.216Z,11.46
2022-09-23T03:00:30.355Z,11.46
2022-09-23T03:03:13.851Z,11.47
2022-09-23T03:05:47.139Z,11.47
2022-09-23T03:08:32.448Z,11.54
2022-09-23T03:11:08.808Z,11.43
2022-09-23T03:13:51.213Z,11.42
2022-09-23T03:16:30.710Z,11.34
2022-09-23T03:19:08.170Z,11.44
2022-09-23T03:21:45.048Z,11.49
2022-09-23T03:24:19.974Z,11.48
2022-09-23T03:26:55.281Z,11.49
2022-09-23T03:29:29.774Z,11.54
2022-09-23T03:32:03.440Z,11.54
2022-09-23T03:34:39.843Z,11.54
2022-09-23T03:37:18.142Z,11.60
2022-09-23T03:39:54.441Z,11.62
2022-09-23T03:42:30.886Z,11.64
2022-09-23T03:45:09.369Z,11.69
2022-09-23T03:47:42.546Z,11.70
2022-09-23T03:50:17.539Z,11.74
2022-09-23T03:52:50.730Z,11.77
2022-09-23T03:55:24.167Z,11.80
2022-09-23T03:57:57.309Z,11.79
2022-09-23T04:00:30.635Z,11.78
2022-09-23T04:03:09.526Z,11.80
2022-09-23T04:05:40.294Z,11.84
2022-09-23T04:08:13.569Z,11.89
2022-09-23T04:10:50.707Z,11.92
2022-09-23T04:13:23.788Z,11.93
2022-09-23T04:16:00.511Z,11.98
2022-09-23T04:18:34.300Z,12.08
2022-09-23T04:21:07.837Z,12.12
2022-09-23T04:23:42.113Z,12.13
2022-09-23T04:26:15.475Z,12.13
2022-09-23T04:28:48.868Z,12.16
2022-09-23T04:31:25.057Z,12.17
2022-09-23T04:33:58.946Z,12.21
2022-09-23T04:36:33.050Z,12.26
2022-09-23T04:39:06.669Z,12.21
2022-09-23T04:41:40.112Z,12.17
2022-09-23T04:44:16.132Z,12.13
2022-09-23T04:46:52.934Z,12.11
2022-09-23T04:49:27.120Z,12.16
2022-09-23T04:52:03.478Z,12.27
2022-09-23T04:54:39.193Z,12.37
2022-09-23T04:57:12.309Z,12.52
2022-09-23T04:59:45.365Z,12.58
2022-09-23T05:02:18.676Z,12.62
2022-09-23T05:04:52.165Z,12.61
2022-09-23T05:07:25.306Z,12.55
2022-09-23T05:09:58.524Z,12.49
2022-09-23T05:12:34.158Z,12.52
2022-09-23T05:15:08.756Z,12.63
2022-09-23T05:17:43.010Z,12.74
2022-09-23T05:20:16.202Z,12.85
2022-09-23T05:22:49.386Z,13.03
2022-09-23T05:25:25.726Z,13.19
2022-09-23T05:28:00.252Z,13.41
2022-09-23T05:30:33.585Z,13.71
2022-09-23T05:33:07.113Z,14.04
2022-09-23T05:35:44.154Z,14.20
2022-09-23T05:38:17.904Z,14.39
2022-09-23T05:40:57.858Z,14.59
2022-09-23T05:43:32.723Z,14.87
2022-09-23T05:46:09.924Z,15.34
2022-09-23T05:48:45.987Z,15.61
2022-09-23T05:51:20.758Z,15.55
2022-09-23T05:53:55.111Z,15.46
2022-09-23T05:56:29.963Z,15.39
2022-09-23T05:59:04.718Z,15.24
2022-09-23T06:01:38.879Z,15.10
2022-09-23T06:04:15.188Z,14.90
2022-09-23T06:06:49.321Z,14.75
2022-09-23T06:09:22.360Z,14.65
2022-09-23T06:11:56.089Z,14.50
2022-09-23T06:14:29.289Z,14.41
2022-09-23T06:17:02.542Z,14.47
2022-09-23T06:19:35.677Z,14.63
2022-09-23T06:22:08.753Z,14.75
2022-09-23T06:24:41.890Z,14.64
2022-09-23T06:27:14.964Z,14.41
2022-09-23T06:29:48.046Z,14.38
2022-09-23T06:32:21.437Z,14.39
2022-09-23T06:34:54.576Z,14.47
2022-09-23T06:37:28.021Z,14.39
2022-09-23T06:40:01.063Z,14.39
2022-09-23T06:42:34.606Z,14.36
2022-09-23T06:45:10.705Z,14.35
2022-09-23T06:47:44.533Z,14.44
2022-09-23T06:50:18.103Z,14.54
2022-09-23T06:52:56.559Z,14.74
2022-09-23T06:55:31.779Z,14.83
2022-09-23T06:58:06.918Z,14.87
2022-09-23T07:00:52.821Z,14.82
2022-09-23T07:03:41.042Z,14.83
2022-09-23T07:06:14.965Z,14.87
2022-09-23T07:08:50.422Z,14.81
2022-09-23T07:11:24.032Z,14.83
2022-09-23T07:13:58.162Z,14.92
2022-09-23T07:16:33.347Z,14.95
2022-09-23T07:19:09.024Z,15.23
2022-09-23T07:21:43.660Z,15.76
2022-09-23T07:24:39.163Z,16.33
2022-09-23T07:27:14.555Z,16.54
2022-09-23T07:29:49.043Z,16.21
2022-09-23T07:32:24.109Z,15.75
2022-09-23T07:34:57.841Z,15.39
2022-09-23T07:37:33.122Z,15.14
2022-09-23T07:40:08.159Z,14.91
2022-09-23T07:42:42.002Z,14.92
2022-09-23T07:45:16.447Z,15.01
2022-09-23T07:47:50.224Z,15.05
2022-09-23T07:50:24.332Z,15.20
2022-09-23T07:52:57.501Z,15.38
2022-09-23T07:55:31.158Z,15.61
2022-09-23T07:58:04.482Z,15.94
2022-09-23T08:00:38.155Z,16.06
2022-09-23T08:03:12.186Z,16.08
2022-09-23T08:05:46.905Z,16.18
2022-09-23T08:08:20.134Z,16.32
2022-09-23T08:10:53.445Z,16.43
2022-09-23T08:13:26.696Z,16.56
2022-09-23T08:16:00.249Z,16.47
2022-09-23T08:18:33.722Z,16.23
2022-09-23T08:21:07.583Z,16.13
2022-09-23T08:23:42.971Z,16.24
2022-09-23T08:26:21.791Z,16.36
2022-09-23T08:28:53.456Z,16.40
2022-09-23T08:31:27.602Z,16.22
2022-09-23T08:34:01.782Z,16.02
2022-09-23T08:36:36.882Z,15.95
2022-09-23T08:39:16.646Z,15.92
2022-09-23T08:41:59.289Z,16.06
2022-09-23T08:44:38.027Z,17.71
2022-09-23T08:47:15.436Z,19.16
2022-09-23T08:49:55.769Z,19.37
2022-09-23T08:52:36.322Z,19.53
2022-09-23T08:55:15.095Z,19.41
2022-09-23T08:58:13.995Z,19.08
2022-09-23T09:00:31.767Z,18.76
2022-09-23T09:03:09.852Z,18.55
2022-09-23T09:05:53.777Z,18.44
2022-09-23T09:08:24.835Z,18.26
2022-09-23T09:10:59.319Z,18.23
2022-09-23T09:19:56.856Z,18.28
2022-09-23T09:22:39.927Z,18.20
2022-09-23T09:25:33.431Z,18.06
2022-09-23T09:28:04.748Z,17.81
2022-09-23T09:30:37.894Z,17.60
2022-09-23T09:33:15.301Z,17.24
2022-09-23T09:36:16.451Z,16.79
2022-09-23T09:38:51.210Z,16.45
2022-09-23T09:41:25.574Z,16.24
2022-09-23T09:43:59.583Z,16.20
2022-09-23T09:46:46.013Z,16.22
2022-09-23T09:52:23.890Z,16.36
2022-09-23T09:54:58.771Z,16.33
2022-09-23T09:57:36.216Z,16.38
2022-09-23T10:00:22.449Z,16.27
2022-09-23T10:02:58.837Z,16.37
2022-09-23T10:05:35.455Z,16.47
2022-09-23T10:08:26.661Z,16.94
2022-09-23T10:11:05.803Z,18.02
2022-09-23T10:13:38.703Z,19.83
2022-09-23T10:16:12.420Z,21.43
2022-09-23T10:18:55.063Z,22.58
2022-09-23T10:21:31.343Z,24.66
2022-09-23T10:24:07.224Z,27.31
2022-09-23T10:26:44.205Z,28.17
2022-09-23T10:29:28.888Z,27.11
2022-09-23T10:35:26.788Z,24.92
2022-09-23T10:38:01.476Z,23.59
2022-09-23T10:40:55.325Z,22.51
2022-09-23T10:43:52.819Z,21.57
2022-09-23T10:46:42.260Z,20.33
2022-09-23T10:52:51.063Z,19.29
2022-09-23T10:56:01.444Z,19.01
2022-09-23T10:58:52.822Z,19.15
2022-09-23T11:01:33.537Z,19.37
2022-09-23T11:04:27.769Z,19.75
2022-09-23T11:07:20.820Z,20.88
2022-09-23T11:10:04.014Z,21.96
2022-09-23T11:12:41.311Z,22.33
2022-09-23T11:15:23.272Z,21.73
2022-09-23T11:18:19.096Z,21.31
2022-09-23T11:20:58.580Z,21.08
2022-09-23T11:23:41.962Z,20.59
2022-09-23T11:26:23.533Z,20.32
2022-09-23T11:29:45.639Z,20.39
2022-09-23T11:32:47.101Z,21.58
2022-09-23T11:35:22.925Z,22.74
2022-09-23T11:37:58.998Z,22.00
2022-09-23T11:40:35.851Z,21.95
2022-09-23T11:43:15.713Z,24.91
2022-09-23T11:45:51.670Z,28.03
2022-09-23T11:48:29.113Z,28.58
2022-09-23T11:51:05.072Z,27.29
2022-09-23T11:53:44.624Z,25.94
2022-09-23T11:56:31.918Z,24.81
2022-09-23T11:59:01.348Z,23.77
2022-09-23T12:01:38.185Z,22.65
2022-09-23T12:04:20.377Z,21.69
2022-09-23T12:06:49.692Z,20.79
2022-09-23T12:09:47.253Z,20.23
2022-09-23T12:12:03.719Z,19.72
2022-09-23T12:14:40.337Z,19.41
2022-09-23T12:17:27.631Z,19.07
2022-09-23T12:20:09.296Z,18.63
2022-09-23T12:22:50.981Z,18.22
2022-09-23T12:25:43.217Z,17.68
2022-09-23T12:28:20.328Z,17.27
2022-09-23T12:30:55.892Z,17.09
2022-09-23T12:33:31.193Z,16.98
2022-09-23T12:36:08.089Z,16.75
2022-09-23T12:38:42.666Z,16.56
2022-09-23T12:41:31.792Z,16.44
2022-09-23T12:44:16.883Z,16.40
2022-09-23T12:46:50.192Z,16.38
2022-09-23T12:49:28.238Z,16.51
2022-09-23T12:52:26.122Z,16.56
2022-09-23T12:55:01.519Z,16.54
2022-09-23T12:57:43.692Z,16.63
2022-09-23T13:00:33.530Z,16.65
2022-09-23T13:03:20.973Z,16.67
2022-09-23T13:06:14.397Z,16.55
2022-09-23T13:08:48.993Z,16.39
2022-09-23T13:11:23.876Z,16.37
2022-09-23T13:14:00.121Z,16.22
2022-09-23T13:16:37.173Z,16.12
2022-09-23T13:19:15.314Z,16.14
2022-09-23T13:22:09.390Z,16.25
2022-09-23T13:24:48.455Z,16.22
2022-09-23T13:27:26.952Z,16.00
2022-09-23T13:30:07.613Z,15.91
2022-09-23T13:32:43.975Z,15.79
2022-09-23T13:35:22.854Z,15.83
2022-09-23T13:37:56.395Z,16.00
2022-09-23T13:40:31.822Z,15.98
2022-09-23T13:43:06.538Z,16.00
2022-09-23T13:45:43.374Z,15.80
2022-09-23T13:48:17.786Z,15.62
2022-09-23T13:50:53.447Z,15.52
2022-09-23T13:53:29.732Z,15.30
2022-09-23T13:56:06.174Z,15.01
2022-09-23T13:58:39.530Z,14.83
2022-09-23T14:01:20.456Z,14.66
2022-09-23T14:03:53.439Z,14.52
2022-09-23T14:06:27.779Z,14.41
2022-09-23T14:09:03.022Z,14.38
2022-09-23T14:11:37.591Z,14.37
2022-09-23T14:14:14.939Z,14.35
2022-09-23T14:16:49.843Z,14.40
2022-09-23T14:19:25.207Z,14.35
2022-09-23T14:21:59.724Z,14.33
2022-09-23T14:24:36.996Z,14.37
2022-09-23T14:27:13.768Z,14.40
2022-09-23T14:29:49.498Z,14.42
2022-09-23T14:32:25.973Z,14.36
2022-09-23T14:35:17.090Z,14.25
2022-09-23T14:38:10.423Z,14.16
2022-09-23T14:40:56.377Z,14.02
2022-09-23T14:43:30.512Z,13.97
2022-09-23T14:46:03.484Z,13.88
2022-09-23T14:48:37.816Z,13.83
2022-09-23T14:51:17.198Z,13.80
2022-09-23T14:53:49.497Z,13.72
2022-09-23T14:56:25.438Z,13.65
2022-09-23T14:59:00.142Z,13.55
2022-09-23T15:01:40.538Z,13.52
2022-09-23T15:04:18.281Z,13.46
2022-09-23T15:06:57.177Z,13.37
2022-09-23T15:09:33.069Z,13.23
2022-09-23T15:12:09.215Z,13.11
2022-09-23T15:14:46.636Z,13.01
2022-09-23T15:17:29.563Z,12.97
2022-09-23T15:20:05.186Z,12.94
2022-09-23T15:22:46.057Z,12.83
2022-09-23T15:25:22.589Z,12.77
2022-09-23T15:28:05.893Z,12.75
2022-09-23T15:30:40.642Z,12.72
2022-09-23T15:33:16.573Z,12.67
2022-09-23T15:35:50.565Z,12.64
2022-09-23T15:38:24.363Z,12.59
2022-09-23T15:40:57.538Z,12.53
2022-09-23T15:43:30.583Z,12.52
2022-09-23T15:46:07.570Z,12.49
2022-09-23T15:48:43.886Z,12.49
2022-09-23T15:51:19.664Z,12.49
2022-09-23T15:53:54.221Z,12.41
2022-09-23T15:56:27.857Z,12.38
2022-09-23T15:59:00.976Z,12.34
2022-09-23T16:01:36.826Z,12.27
2022-09-23T16:04:12.069Z,12.17
2022-09-23T16:06:45.496Z,12.09
2022-09-23T16:09:18.779Z,12.07
2022-09-23T16:11:52.052Z,11.98
2022-09-23T16:14:25.382Z,11.99
2022-09-23T16:16:58.415Z,11.99
2022-09-23T16:19:33.058Z,12.03
2022-09-23T16:22:07.004Z,12.03
2022-09-23T16:24:41.413Z,11.99
2022-09-23T16:27:17.291Z,11.96
2022-09-23T16:29:53.352Z,11.94
2022-09-23T16:32:26.634Z,11.93
2022-09-23T16:34:59.782Z,11.87
2022-09-23T16:37:35.148Z,11.80
2022-09-23T16:40:10.269Z,11.72
2022-09-23T16:42:46.655Z,11.69
2022-09-23T16:45:23.251Z,11.65
2022-09-23T16:47:56.574Z,11.65
2022-09-23T16:50:29.916Z,11.73
2022-09-23T16:53:02.926Z,11.72
2022-09-23T16:55:36.103Z,11.69
2022-09-23T16:58:09.017Z,11.71
2022-09-23T17:00:59.395Z,11.69
2022-09-23T17:03:41.604Z,11.72
2022-09-23T17:06:15.273Z,11.75
2022-09-23T17:08:49.105Z,11.75
2022-09-23T17:11:23.110Z,11.77
2022-09-23T17:13:56.221Z,11.73
2022-09-23T17:16:31.312Z,11.71
2022-09-23T17:19:08.816Z,11.65
2022-09-23T17:21:42.797Z,11.55
2022-09-23T17:24:16.985Z,11.47
2022-09-23T17:26:53.603Z,11.40
2022-09-23T17:29:28.823Z,11.34
2022-09-23T17:32:01.967Z,11.31
2022-09-23T17:34:35.012Z,11.27
2022-09-23T17:37:10.714Z,11.24
2022-09-23T17:39:45.547Z,11.24
2022-09-23T17:42:19.528Z,11.25
2022-09-23T17:44:52.571Z,11.23
2022-09-23T17:47:29.110Z,11.20
2022-09-23T17:50:03.074Z,11.23
2022-09-23T17:52:36.273Z,11.14
2022-09-23T17:55:12.184Z,11.07
2022-09-23T17:57:45.076Z,11.09
2022-09-23T18:00:18.433Z,11.17
2022-09-23T18:02:53.416Z,11.21
2022-09-23T18:05:26.348Z,11.23
2022-09-23T18:08:01.872Z,11.24
2022-09-23T18:10:34.055Z,11.22
2022-09-23T18:13:06.923Z,11.22
2022-09-23T18:15:42.617Z,11.27
2022-09-23T18:18:15.578Z,11.31
2022-09-23T18:20:48.867Z,11.27
2022-09-23T18:23:26.013Z,11.29
2022-09-23T18:25:56.476Z,11.33
2022-09-23T18:28:34.875Z,11.37
2022-09-23T18:31:06.437Z,11.40
2022-09-23T18:33:39.734Z,11.46
2022-09-23T18:36:12.912Z,11.46
2022-09-23T18:38:47.063Z,11.36
2022-09-23T18:41:20.975Z,11.33
2022-09-23T18:43:54.185Z,11.31
2022-09-23T18:46:29.605Z,11.13
2022-09-23T18:49:19.928Z,11.19
2022-09-23T18:52:00.190Z,11.19
2022-09-23T18:54:33.114Z,11.14
2022-09-23T18:57:06.094Z,11.06
2022-09-23T18:59:40.207Z,10.99
2022-09-23T19:02:14.706Z,10.92
2022-09-23T19:04:47.658Z,10.85
2022-09-23T19:07:20.529Z,10.81
2022-09-23T19:09:53.471Z,10.83
2022-09-23T19:12:26.565Z,10.84
2022-09-23T19:14:59.484Z,10.86
2022-09-23T19:17:34.250Z,10.87
2022-09-23T19:20:08.870Z,10.83
2022-09-23T19:22:48.119Z,10.84
2022-09-23T19:25:21.030Z,10.83
2022-09-23T19:27:53.963Z,10.86
2022-09-23T19:30:27.516Z,10.88
2022-09-23T19:33:00.515Z,10.89
2022-09-23T19:35:34.292Z,10.83
2022-09-23T19:38:07.349Z,10.82
2022-09-23T19:40:40.325Z,10.89
2022-09-23T19:43:14.327Z,10.98
2022-09-23T19:45:48.651Z,11.08
2022-09-23T19:48:21.998Z,11.12
2022-09-23T19:50:55.011Z,11.15
2022-09-23T19:53:28.411Z,11.15
2022-09-23T19:56:05.101Z,11.19
2022-09-23T19:58:39.164Z,11.20
2022-09-23T20:01:12.758Z,11.15
2022-09-23T20:03:47.431Z,11.19
2022-09-23T20:06:21.647Z,11.24
2022-09-23T20:08:56.577Z,11.28
2022-09-23T20:11:31.704Z,11.23
2022-09-23T20:14:06.667Z,11.24
2022-09-23T20:16:40.597Z,11.24
2022-09-23T20:19:27.180Z,11.30
2022-09-23T20:22:18.997Z,11.33
2022-09-23T20:24:51.863Z,11.31
2022-09-23T20:27:24.898Z,11.27
2022-09-23T20:29:57.938Z,11.29
2022-09-23T20:32:31.078Z,11.31
2022-09-23T20:35:04.251Z,11.34
2022-09-23T20:37:37.480Z,11.34
2022-09-23T20:40:11.488Z,11.32
2022-09-23T20:42:44.324Z,11.29
2022-09-23T20:45:17.756Z,11.29
2022-09-23T20:47:50.587Z,11.29
2022-09-23T20:50:23.426Z,11.29
2022-09-23T20:52:56.427Z,11.27
2022-09-23T20:55:30.154Z,11.26
2022-09-23T20:58:03.566Z,11.21
2022-09-23T21:00:36.800Z,11.19
2022-09-23T21:03:10.440Z,11.22
2022-09-23T21:05:43.266Z,11.25
2022-09-23T21:08:17.768Z,11.31
2022-09-23T21:10:57.207Z,11.35
2022-09-23T21:13:30.031Z,11.30
2022-09-23T21:16:06.419Z,11.28
2022-09-23T21:18:39.314Z,11.26
2022-09-23T21:21:14.238Z,11.23
2022-09-23T21:23:47.657Z,11.21
2022-09-23T21:26:23.298Z,11.14
2022-09-23T21:28:58.817Z,11.09
2022-09-23T21:31:34.364Z,11.11
2022-09-23T21:34:09.480Z,11.16
2022-09-23T21:36:44.371Z,11.20
2022-09-23T21:39:17.337Z,11.24
2022-09-23T21:41:51.574Z,11.25
2022-09-23T21:44:25.606Z,11.27
2022-09-23T21:46:59.488Z,11.26
2022-09-23T21:50:28.347Z,11.21
2022-09-23T21:53:01.391Z,11.20
2022-09-23T21:55:34.359Z,11.19
2022-09-23T21:58:07.243Z,11.15
2022-09-23T22:00:41.902Z,11.11
2022-09-23T22:03:14.779Z,11.04
2022-09-23T22:05:47.744Z,10.99
2022-09-23T22:08:20.631Z,10.95
2022-09-23T22:10:53.521Z,10.87
2022-09-23T22:13:27.544Z,10.80
2022-09-23T22:16:08.955Z,10.78
2022-09-23T22:18:42.245Z,10.82
2022-09-23T22:24:01.199Z,10.94
2022-09-23T22:26:36.300Z,10.81
2022-09-23T22:29:29.208Z,10.80
2022-09-23T22:32:23.608Z,10.79
2022-09-23T22:34:56.628Z,10.77
2022-09-23T22:37:33.210Z,10.68
2022-09-23T22:40:08.773Z,10.63
2022-09-23T22:42:42.348Z,10.64
2022-09-23T22:45:15.576Z,10.66
2022-09-23T22:47:48.951Z,10.65
2022-09-23T22:50:21.938Z,10.61
2022-09-23T22:52:54.781Z,10.58
2022-09-23T22:55:28.217Z,10.60
2022-09-23T22:58:15.291Z,10.56
2022-09-23T23:00:37.035Z,10.52
2022-09-23T23:03:09.905Z,10.49
2022-09-23T23:05:42.821Z,10.47
2022-09-23T23:08:17.262Z,10.45
2022-09-23T23:10:50.923Z,10.46
2022-09-23T23:13:24.747Z,10.44
2022-09-23T23:15:59.020Z,10.46
2022-09-23T23:18:35.102Z,10.50
2022-09-23T23:21:13.762Z,10.47
2022-09-23T23:23:48.679Z,10.43
2022-09-23T23:26:23.803Z,10.43
2022-09-23T23:28:57.480Z,10.45
2022-09-23T23:31:32.902Z,10.47
2022-09-23T23:34:06.151Z,10.47
2022-09-23T23:36:39.614Z,10.49
2022-09-23T23:39:13.254Z,10.50
2022-09-23T23:41:46.081Z,10.48
2022-09-23T23:44:19.151Z,10.50
2022-09-23T23:46:52.234Z,10.50
2022-09-23T23:49:25.773Z,10.52
2022-09-23T23:51:58.645Z,10.52
2022-09-23T23:54:33.149Z,10.50
2022-09-23T23:57:06.137Z,10.51
2022-09-23T23:59:38.969Z,10.53
